Time;durP1;ratioP1;P1;durP2;ratioP2;P2;SDS_P1;SDS_P2;PMS_P1;PMS_P2;Temp;Humidity;BMP_temperature;BMP_pressure;BME280_temperature;BME280_humidity;BME280_pressure;Samples;Min_cycle;Max_cycle;Signal;HPM_P1;HPM_P2
2022/11/01 00:00:07;;;;;;;21.10;14.13;;;12.40;99.90;;;;;;5045472;28;20087;-28
2022/11/01 00:02:33;;;;;;;23.55;14.73;;;12.50;99.90;;;;;;5051552;28;20033;-28
2022/11/01 00:04:59;;;;;;;26.42;15.05;;;12.50;99.90;;;;;;5035324;28;20044;-28
2022/11/01 00:07:24;;;;;;;20.73;13.90;;;12.50;99.90;;;;;;5048701;28;20064;-28
2022/11/01 00:09:50;;;;;;;18.95;14.00;;;12.50;99.90;;;;;;5049999;28;20490;-28
2022/11/01 00:12:16;;;;;;;22.58;14.75;;;12.50;99.90;;;;;;5051219;28;20065;-28
2022/11/01 00:14:42;;;;;;;19.67;14.25;;;12.50;99.90;;;;;;5044685;28;20453;-28
2022/11/01 00:17:07;;;;;;;21.25;13.88;;;12.60;99.90;;;;;;5043693;28;20044;-28
2022/11/01 00:19:33;;;;;;;20.60;13.60;;;12.60;99.90;;;;;;5036266;28;20072;-28
2022/11/01 00:21:59;;;;;;;22.77;14.30;;;12.60;99.90;;;;;;5044155;28;20041;-28
2022/11/01 00:24:25;;;;;;;21.50;13.68;;;12.60;99.90;;;;;;5045539;28;22325;-28
2022/11/01 00:26:50;;;;;;;20.85;13.68;;;12.60;99.90;;;;;;5046093;28;20076;-28
2022/11/01 00:29:16;;;;;;;23.30;13.90;;;12.60;99.90;;;;;;5059966;28;20370;-28
2022/11/01 00:31:42;;;;;;;19.45;12.60;;;12.60;99.90;;;;;;5049245;28;20107;-28
2022/11/01 00:34:08;;;;;;;21.48;13.23;;;12.60;99.90;;;;;;5057438;28;20108;-28
2022/11/01 00:36:35;;;;;;;18.83;13.27;;;12.70;99.90;;;;;;5048975;28;20040;-28
2022/11/01 00:39:01;;;;;;;19.55;13.02;;;12.70;99.90;;;;;;5056889;28;20097;-28
2022/11/01 00:41:27;;;;;;;18.10;12.82;;;12.70;99.90;;;;;;5048745;28;20037;-28
2022/11/01 00:43:52;;;;;;;23.50;13.40;;;12.80;99.90;;;;;;5063416;28;20097;-28
2022/11/01 00:46:18;;;;;;;19.50;12.65;;;12.80;99.90;;;;;;5049617;28;20179;-28
2022/11/01 00:48:44;;;;;;;19.45;12.30;;;12.80;99.90;;;;;;5045883;28;20506;-28
2022/11/01 00:51:10;;;;;;;18.70;12.25;;;12.80;99.90;;;;;;5041152;28;20110;-28
2022/11/01 00:53:36;;;;;;;19.00;12.25;;;12.80;99.90;;;;;;5048168;28;20032;-28
2022/11/01 00:56:06;;;;;;;22.33;12.65;;;12.90;99.90;;;;;;5051462;28;20029;-28
2022/11/01 00:58:32;;;;;;;16.90;11.27;;;13.00;99.90;;;;;;5046033;28;20083;-28
2022/11/01 01:00:58;;;;;;;17.67;12.45;;;13.10;99.90;;;;;;5049855;28;20116;-28
2022/11/01 01:03:24;;;;;;;16.92;12.38;;;13.20;99.90;;;;;;5048089;28;20119;-28
2022/11/01 01:05:51;;;;;;;15.15;10.23;;;13.10;99.90;;;;;;5043119;28;20497;-28
2022/11/01 01:08:17;;;;;;;18.42;11.07;;;13.20;99.90;;;;;;5043715;28;20048;-28
2022/11/01 01:10:43;;;;;;;19.38;11.20;;;13.30;99.90;;;;;;5054932;28;20025;-28
2022/11/01 01:13:09;;;;;;;21.13;11.27;;;13.40;99.90;;;;;;5042519;28;20162;-28
2022/11/01 01:15:37;;;;;;;17.52;11.13;;;13.50;99.90;;;;;;5052129;28;20059;-28
2022/11/01 01:18:04;;;;;;;17.33;11.02;;;13.60;99.90;;;;;;5046058;28;20036;-28
2022/11/01 01:20:29;;;;;;;15.82;10.52;;;13.60;99.90;;;;;;5047834;28;20040;-28
2022/11/01 01:22:55;;;;;;;16.45;11.35;;;13.50;99.90;;;;;;5038262;28;20037;-28
2022/11/01 01:25:21;;;;;;;20.27;10.93;;;13.60;99.90;;;;;;5036681;28;20029;-28
2022/11/01 01:27:48;;;;;;;16.08;10.57;;;13.60;99.90;;;;;;5041316;28;20082;-30
2022/11/01 01:30:14;;;;;;;18.25;10.40;;;13.60;99.90;;;;;;5056450;28;20098;-28
2022/11/01 01:32:40;;;;;;;15.35;11.27;;;13.60;99.90;;;;;;5075148;28;20420;-28
2022/11/01 01:35:06;;;;;;;20.40;10.20;;;13.60;99.90;;;;;;5074290;28;20040;-27
2022/11/01 01:37:31;;;;;;;22.95;10.98;;;13.60;99.90;;;;;;5056388;28;20040;-28
2022/11/01 01:39:57;;;;;;;16.33;10.77;;;13.60;99.90;;;;;;5056297;28;20044;-28
2022/11/01 01:42:34;;;;;;;13.82;10.77;;;13.60;99.90;;;;;;5056896;28;20036;-28
2022/11/01 01:45:16;;;;;;;13.70;9.82;;;13.70;99.90;;;;;;5056413;28;20044;-27
2022/11/01 01:47:45;;;;;;;14.40;9.88;;;13.70;99.90;;;;;;5056657;28;20068;-28
2022/11/01 01:50:31;;;;;;;17.00;10.20;;;13.70;99.90;;;;;;5056663;28;20044;-28
2022/11/01 01:53:09;;;;;;;15.52;9.45;;;13.60;99.90;;;;;;5056765;28;20037;-28
2022/11/01 01:55:48;;;;;;;16.35;10.55;;;13.60;99.90;;;;;;5056369;28;20403;-28
2022/11/01 01:58:18;;;;;;;13.60;10.00;;;13.50;99.90;;;;;;5056655;28;20444;-28
2022/11/01 02:00:44;;;;;;;15.80;10.07;;;13.50;99.90;;;;;;5056801;28;20080;-28
2022/11/01 02:03:11;;;;;;;14.45;10.05;;;13.50;99.90;;;;;;5056164;28;20091;-28
2022/11/01 02:05:43;;;;;;;16.13;10.20;;;13.60;99.90;;;;;;5056254;28;20486;-28
2022/11/01 02:08:10;;;;;;;15.68;9.98;;;13.60;99.90;;;;;;5056383;28;20059;-28
2022/11/01 02:10:36;;;;;;;13.90;9.85;;;13.70;99.90;;;;;;5056139;28;20032;-29
2022/11/01 02:13:09;;;;;;;15.13;9.52;;;13.70;99.90;;;;;;5056206;28;20044;-28
2022/11/01 02:15:48;;;;;;;15.65;9.82;;;13.60;99.90;;;;;;5056552;28;20064;-28
2022/11/01 02:18:40;;;;;;;16.50;9.90;;;13.60;99.90;;;;;;5056288;28;20394;-28
2022/11/01 02:21:25;;;;;;;15.65;10.10;;;13.50;99.90;;;;;;5055722;28;20036;-28
2022/11/01 02:23:57;;;;;;;13.13;9.05;;;13.50;99.90;;;;;;5056052;28;20033;-27
2022/11/01 02:26:40;;;;;;;16.45;10.05;;;13.50;99.90;;;;;;5056252;28;20047;-28
2022/11/01 02:29:21;;;;;;;13.05;8.95;;;13.60;99.90;;;;;;5056157;28;20044;-28
2022/11/01 02:32:05;;;;;;;17.48;9.60;;;13.50;99.90;;;;;;5056243;28;20044;-28
2022/11/01 02:34:59;;;;;;;17.35;9.35;;;13.50;99.90;;;;;;5056055;28;20500;-28
2022/11/01 02:37:48;;;;;;;17.48;10.27;;;13.50;99.90;;;;;;5055740;28;20052;-28
2022/11/01 02:40:23;;;;;;;17.67;9.57;;;13.50;99.90;;;;;;5044839;28;20057;-28
2022/11/01 02:42:53;;;;;;;10.07;8.48;;;13.60;99.90;;;;;;5056022;28;20044;-27
2022/11/01 02:45:39;;;;;;;14.82;8.68;;;13.70;99.90;;;;;;5055771;28;20500;-28
2022/11/01 02:48:05;;;;;;;15.60;8.32;;;13.70;99.90;;;;;;5055802;28;20137;-28
2022/11/01 02:50:45;;;;;;;13.82;8.32;;;13.80;99.90;;;;;;5054633;28;20119;-27
2022/11/01 02:53:11;;;;;;;14.85;7.75;;;13.90;99.90;;;;;;5055505;28;20036;-27
2022/11/01 02:55:37;;;;;;;15.30;7.63;;;14.00;99.90;;;;;;5054972;28;20044;-27
2022/11/01 02:58:10;;;;;;;15.35;7.75;;;14.10;99.90;;;;;;5055172;28;20040;-27
2022/11/01 03:00:36;;;;;;;12.85;8.07;;;14.20;99.90;;;;;;5055338;28;20036;-27
2022/11/01 03:03:09;;;;;;;11.18;7.20;;;14.20;99.90;;;;;;5054994;28;20123;-27
2022/11/01 03:05:41;;;;;;;13.98;6.75;;;14.30;99.90;;;;;;5055299;28;20038;-28
2022/11/01 03:08:11;;;;;;;9.50;6.68;;;14.40;99.90;;;;;;5055138;28;20158;-27
2022/11/01 03:10:37;;;;;;;12.27;7.20;;;14.50;99.90;;;;;;5055068;28;20082;-27
2022/11/01 03:13:12;;;;;;;12.43;6.03;;;14.60;99.90;;;;;;5055386;28;20036;-28
2022/11/01 03:15:47;;;;;;;11.35;6.40;;;14.70;99.90;;;;;;5055057;28;20044;-27
2022/11/01 03:18:20;;;;;;;14.35;6.40;;;14.80;99.90;;;;;;5055272;28;20151;-28
2022/11/01 03:20:58;;;;;;;11.70;6.38;;;15.00;99.90;;;;;;5055344;28;20036;-28
2022/11/01 03:23:39;;;;;;;12.55;6.28;;;15.00;99.90;;;;;;5038405;28;20047;-29
2022/11/01 03:26:13;;;;;;;6.80;5.97;;;15.10;99.90;;;;;;5055177;28;20083;-28
2022/11/01 03:28:43;;;;;;;11.55;6.55;;;15.20;99.90;;;;;;5055022;28;20044;-29
2022/11/01 03:31:18;;;;;;;9.55;5.70;;;15.20;99.90;;;;;;5054841;28;20039;-28
2022/11/01 03:33:58;;;;;;;8.10;5.78;;;15.30;99.90;;;;;;5054778;28;20132;-28
2022/11/01 03:36:30;;;;;;;8.07;5.93;;;15.30;99.90;;;;;;5054751;28;20382;-28
2022/11/01 03:39:01;;;;;;;9.95;6.47;;;15.40;99.90;;;;;;5054870;28;20047;-28
2022/11/01 03:41:31;;;;;;;11.30;6.30;;;15.30;99.90;;;;;;5054958;28;20036;-28
2022/11/01 03:43:58;;;;;;;12.20;6.30;;;15.30;99.90;;;;;;5054807;28;20037;-28
2022/11/01 03:46:25;;;;;;;12.60;6.43;;;15.20;99.90;;;;;;5054788;28;20040;-28
2022/11/01 03:48:50;;;;;;;12.13;6.47;;;15.20;99.90;;;;;;5054920;28;20129;-28
2022/11/01 03:51:16;;;;;;;12.18;6.38;;;15.20;99.90;;;;;;5055420;28;20470;-28
2022/11/01 03:53:42;;;;;;;12.63;6.32;;;15.20;99.90;;;;;;5055271;28;20040;-28
2022/11/01 03:56:08;;;;;;;9.43;6.20;;;15.10;99.90;;;;;;5055055;28;20037;-28
2022/11/01 03:58:40;;;;;;;8.55;5.95;;;15.10;99.90;;;;;;5038393;28;20041;-28
2022/11/01 04:01:11;;;;;;;9.05;5.93;;;15.20;99.90;;;;;;5067380;28;20092;-28
2022/11/01 04:03:37;;;;;;;8.75;5.82;;;15.10;99.90;;;;;;5055519;28;20044;-27
2022/11/01 04:06:04;;;;;;;11.15;6.35;;;15.10;99.90;;;;;;5043289;28;20056;-28
2022/11/01 04:08:30;;;;;;;9.85;6.22;;;15.10;99.90;;;;;;5034500;28;20394;-28
2022/11/01 04:10:55;;;;;;;12.20;6.30;;;15.20;99.90;;;;;;5034410;28;20048;-28
2022/11/01 04:13:21;;;;;;;8.32;6.22;;;15.20;99.90;;;;;;5034273;28;20033;-28
2022/11/01 04:21:22;;;;;;;8.88;6.15;;;15.20;99.90;;;;;;5052240;28;20059;-27
2022/11/01 04:23:48;;;;;;;14.20;6.00;;;15.20;99.90;;;;;;5034256;28;20116;-28
2022/11/01 04:26:16;;;;;;;11.45;6.18;;;15.30;99.90;;;;;;5034238;28;20120;-28
2022/11/01 04:28:55;;;;;;;8.82;5.75;;;15.30;99.90;;;;;;5034516;28;20500;-28
2022/11/01 04:31:31;;;;;;;10.75;5.75;;;15.30;99.90;;;;;;5034687;28;20434;-28
2022/11/01 04:33:59;;;;;;;12.40;6.20;;;15.40;99.90;;;;;;5034421;28;20143;-28
2022/11/01 04:36:25;;;;;;;13.15;6.20;;;15.40;99.90;;;;;;5034238;28;20139;-28
2022/11/01 04:38:54;;;;;;;10.45;6.00;;;15.40;99.90;;;;;;5034337;28;20119;-28
2022/11/01 04:41:21;;;;;;;9.00;5.85;;;15.40;99.90;;;;;;5037272;28;20036;-30
2022/11/01 04:43:48;;;;;;;9.50;5.78;;;15.40;99.90;;;;;;5041752;28;20157;-30
2022/11/01 04:46:15;;;;;;;8.80;5.72;;;15.40;99.90;;;;;;5045003;28;20043;-30
2022/11/01 04:48:41;;;;;;;8.65;6.60;;;15.50;99.90;;;;;;5041695;28;20055;-30
2022/11/01 04:51:07;;;;;;;10.90;6.20;;;15.50;99.90;;;;;;5058217;28;20072;-30
2022/11/01 04:53:33;;;;;;;8.57;5.90;;;15.50;99.90;;;;;;5050648;28;20040;-30
2022/11/01 04:56:02;;;;;;;9.48;5.85;;;15.50;99.90;;;;;;5051549;28;20377;-30
2022/11/01 04:58:28;;;;;;;7.22;5.82;;;15.50;99.90;;;;;;5046820;28;20037;-30
2022/11/01 05:00:54;;;;;;;9.98;5.82;;;15.50;99.90;;;;;;5045582;28;20414;-30
2022/11/01 05:03:20;;;;;;;12.20;5.72;;;15.50;99.90;;;;;;5042656;28;20042;-30
2022/11/01 05:05:45;;;;;;;7.47;5.75;;;15.50;99.90;;;;;;5034651;28;20043;-30
2022/11/01 05:08:13;;;;;;;10.55;5.88;;;15.50;99.90;;;;;;5042358;28;20465;-30
2022/11/01 05:10:41;;;;;;;9.25;5.90;;;15.50;99.90;;;;;;5041043;28;20489;-30
2022/11/01 05:13:09;;;;;;;6.85;5.20;;;15.50;99.90;;;;;;5051401;28;20040;-30
2022/11/01 05:15:34;;;;;;;8.93;6.22;;;15.50;99.90;;;;;;5048608;28;20044;-30
2022/11/01 05:18:00;;;;;;;7.90;6.15;;;15.40;99.90;;;;;;5050816;28;20409;-30
2022/11/01 05:20:27;;;;;;;10.15;5.35;;;15.50;99.90;;;;;;5053975;28;20049;-29
2022/11/01 05:23:01;;;;;;;11.73;5.82;;;15.50;99.90;;;;;;5051971;28;20044;-29
2022/11/01 05:25:27;;;;;;;11.40;6.38;;;15.40;99.90;;;;;;5065675;28;20028;-30
2022/11/01 05:28:04;;;;;;;9.10;6.10;;;15.50;99.90;;;;;;5053427;28;20390;-30
2022/11/01 05:30:31;;;;;;;8.57;6.10;;;15.50;99.90;;;;;;5070089;28;20032;-30
2022/11/01 05:32:58;;;;;;;7.25;5.00;;;15.50;99.90;;;;;;5055123;28;20036;-30
2022/11/01 05:35:24;;;;;;;9.98;5.63;;;15.50;99.90;;;;;;5048981;28;20036;-30
2022/11/01 05:37:50;;;;;;;9.57;5.50;;;15.60;99.90;;;;;;5053141;28;20039;-30
2022/11/01 05:40:16;;;;;;;8.40;5.40;;;15.60;99.90;;;;;;5051722;28;20135;-29
2022/11/01 05:42:43;;;;;;;6.78;5.50;;;15.50;99.90;;;;;;5054964;28;20081;-30
2022/11/01 05:45:09;;;;;;;11.23;5.82;;;15.50;99.90;;;;;;5071264;28;20474;-30
2022/11/01 05:47:35;;;;;;;9.80;5.40;;;15.50;99.90;;;;;;5053686;28;20406;-30
2022/11/01 05:50:01;;;;;;;8.98;5.43;;;15.40;99.90;;;;;;5051691;28;20029;-30
2022/11/01 05:52:27;;;;;;;7.43;5.32;;;15.40;99.90;;;;;;5067039;28;20173;-30
2022/11/01 05:54:53;;;;;;;7.97;5.03;;;15.40;99.90;;;;;;5051667;28;20433;-30
2022/11/01 05:57:18;;;;;;;5.55;3.90;;;15.30;99.90;;;;;;5053769;28;20125;-30
2022/11/01 05:59:44;;;;;;;4.78;3.75;;;15.30;99.90;;;;;;5052173;28;20047;-30
2022/11/01 06:02:10;;;;;;;7.72;4.10;;;15.40;99.90;;;;;;5052027;28;20040;-30
2022/11/01 06:04:36;;;;;;;5.28;3.60;;;15.30;99.90;;;;;;5036231;28;20040;-30
2022/11/01 06:07:02;;;;;;;4.93;3.53;;;15.20;99.90;;;;;;5053719;28;20040;-30
2022/11/01 06:09:29;;;;;;;4.80;2.92;;;15.20;99.90;;;;;;5049063;28;20044;-30
2022/11/01 06:11:55;;;;;;;3.67;2.40;;;15.10;99.90;;;;;;5049818;28;20032;-30
2022/11/01 06:14:20;;;;;;;4.57;2.40;;;15.10;99.90;;;;;;5049671;28;20123;-30
2022/11/01 06:16:46;;;;;;;5.85;2.38;;;15.10;99.90;;;;;;5048511;28;20450;-30
2022/11/01 06:19:12;;;;;;;4.85;2.22;;;15.10;99.90;;;;;;5051225;28;20048;-30
2022/11/01 06:21:38;;;;;;;8.32;1.98;;;15.10;99.90;;;;;;5052982;28;20032;-30
2022/11/01 06:24:04;;;;;;;4.00;1.90;;;15.00;99.90;;;;;;5052002;28;20493;-29
2022/11/01 06:26:30;;;;;;;4.25;2.00;;;15.00;99.90;;;;;;5068757;28;20036;-30
2022/11/01 06:28:59;;;;;;;2.78;1.63;;;14.90;99.90;;;;;;5050350;28;20086;-28
2022/11/01 06:31:25;;;;;;;5.18;2.17;;;14.80;99.90;;;;;;5044465;28;20469;-29
2022/11/01 06:33:51;;;;;;;3.05;1.58;;;14.70;99.90;;;;;;5033383;28;20101;-29
2022/11/01 06:36:17;;;;;;;3.45;1.90;;;14.60;99.90;;;;;;5054277;28;20048;-29
2022/11/01 06:38:42;;;;;;;2.72;1.73;;;14.40;99.90;;;;;;5053025;28;20089;-29
2022/11/01 06:41:08;;;;;;;2.28;1.67;;;14.40;99.90;;;;;;5048153;28;20564;-29
2022/11/01 06:43:34;;;;;;;4.65;1.80;;;14.40;99.90;;;;;;5055496;28;20490;-29
2022/11/01 06:46:00;;;;;;;4.22;1.30;;;14.40;99.90;;;;;;5051240;28;20511;-30
2022/11/01 06:48:27;;;;;;;3.83;1.33;;;14.30;99.90;;;;;;5053094;28;20684;-29
2022/11/01 06:50:54;;;;;;;2.42;1.33;;;14.30;99.90;;;;;;5043292;28;20067;-29
2022/11/01 06:53:22;;;;;;;3.25;1.40;;;14.20;99.90;;;;;;5042468;28;20087;-29
2022/11/01 06:55:48;;;;;;;2.05;1.80;;;14.10;99.90;;;;;;5039480;28;20102;-29
2022/11/01 06:58:13;;;;;;;2.50;1.55;;;14.10;99.90;;;;;;5069232;28;20041;-29
2022/11/01 07:00:39;;;;;;;3.10;1.40;;;14.10;99.90;;;;;;5040662;28;20032;-29
2022/11/01 07:03:09;;;;;;;4.47;2.03;;;14.10;99.90;;;;;;5046156;28;20051;-29
2022/11/01 07:05:36;;;;;;;4.38;1.38;;;14.10;99.90;;;;;;5037883;28;20059;-29
2022/11/01 07:08:03;;;;;;;4.10;1.58;;;14.00;99.90;;;;;;5045739;28;20032;-29
2022/11/01 07:10:29;;;;;;;2.72;1.30;;;14.00;99.90;;;;;;5037214;28;20072;-29
2022/11/01 07:13:02;;;;;;;2.10;1.30;;;14.00;99.90;;;;;;5043964;28;20032;-29
2022/11/01 07:15:29;;;;;;;3.53;1.45;;;13.90;99.90;;;;;;5038557;28;20045;-29
2022/11/01 07:18:00;;;;;;;2.85;1.27;;;13.90;99.90;;;;;;5050602;28;20493;-29
2022/11/01 07:20:26;;;;;;;3.97;1.40;;;13.80;99.90;;;;;;5051980;28;20513;-29
2022/11/01 07:23:12;;;;;;;5.47;1.50;;;13.80;99.90;;;;;;5048261;28;20037;-29
2022/11/01 07:25:39;;;;;;;3.80;1.48;;;13.70;99.90;;;;;;5037457;28;20043;-29
2022/11/01 07:28:04;;;;;;;3.13;1.20;;;13.70;99.90;;;;;;5048203;28;20068;-29
2022/11/01 07:30:30;;;;;;;3.30;1.20;;;13.70;99.90;;;;;;5053879;28;20086;-26
2022/11/01 07:33:02;;;;;;;4.30;1.10;;;13.70;99.90;;;;;;5038550;28;20045;-26
2022/11/01 07:35:28;;;;;;;4.80;1.50;;;13.70;99.90;;;;;;5041332;28;20044;-26
2022/11/01 07:37:59;;;;;;;3.35;1.35;;;13.70;99.90;;;;;;5067172;28;20389;-27
2022/11/01 07:40:28;;;;;;;4.43;1.80;;;13.80;99.90;;;;;;5073740;28;20087;-27
2022/11/01 07:42:57;;;;;;;3.55;1.23;;;13.90;99.90;;;;;;5074007;28;20078;-27
2022/11/01 07:45:24;;;;;;;4.53;1.30;;;14.00;99.90;;;;;;5073833;28;20040;-27
2022/11/01 07:47:50;;;;;;;5.93;1.80;;;14.10;99.90;;;;;;5061752;28;20043;-27
2022/11/01 07:50:16;;;;;;;4.63;1.30;;;14.20;99.90;;;;;;5053964;28;20037;-28
2022/11/01 07:52:42;;;;;;;4.68;1.17;;;14.20;99.90;;;;;;5053789;28;20091;-27
2022/11/01 07:55:08;;;;;;;5.88;1.20;;;14.20;99.90;;;;;;5053479;28;20040;-27
2022/11/01 07:57:38;;;;;;;5.93;1.65;;;14.20;99.90;;;;;;5053401;28;20079;-27
2022/11/01 08:00:05;;;;;;;7.57;2.05;;;14.30;99.90;;;;;;5053489;28;20097;-27
2022/11/01 08:02:31;;;;;;;5.47;1.50;;;14.40;99.90;;;;;;5014838;28;1107614;-27
2022/11/01 08:04:57;;;;;;;5.30;2.05;;;14.40;99.90;;;;;;5039767;28;20049;-27
2022/11/01 08:07:22;;;;;;;9.48;2.03;;;14.60;99.90;;;;;;5050988;28;20037;-27
2022/11/01 08:09:48;;;;;;;5.63;1.98;;;14.90;99.90;;;;;;5034503;28;20168;-27
2022/11/01 08:12:14;;;;;;;9.82;2.17;;;15.20;99.90;;;;;;5034484;28;20041;-27
2022/11/01 08:14:39;;;;;;;6.88;2.05;;;15.50;99.90;;;;;;5034254;28;20450;-27
2022/11/01 08:17:06;;;;;;;6.50;1.35;;;15.70;99.90;;;;;;5034374;28;20065;-27
2022/11/01 08:19:32;;;;;;;6.38;1.63;;;15.90;99.90;;;;;;5028190;28;20063;-28
2022/11/01 08:21:59;;;;;;;8.45;2.03;;;16.10;99.90;;;;;;5054059;28;20162;-27
2022/11/01 08:24:25;;;;;;;8.88;1.98;;;16.30;99.90;;;;;;5053848;28;20046;-27
2022/11/01 08:26:52;;;;;;;7.13;1.83;;;16.40;99.90;;;;;;5054376;28;20501;-28
2022/11/01 08:29:18;;;;;;;6.35;2.38;;;16.50;99.90;;;;;;5054255;28;20098;-27
2022/11/01 08:31:44;;;;;;;12.48;3.47;;;16.60;99.90;;;;;;5053874;28;20052;-27
2022/11/01 08:34:10;;;;;;;11.20;3.00;;;16.30;99.90;;;;;;5053860;28;20039;-27
2022/11/01 08:36:35;;;;;;;7.25;2.40;;;16.40;99.90;;;;;;5051918;28;20080;-27
2022/11/01 08:39:01;;;;;;;8.18;2.60;;;16.50;99.90;;;;;;5034083;28;20102;-27
2022/11/01 08:41:27;;;;;;;8.98;2.88;;;16.80;99.90;;;;;;5033638;28;20067;-27
2022/11/01 08:43:54;;;;;;;7.78;1.80;;;17.00;99.90;;;;;;5034195;28;20525;-28
2022/11/01 08:46:20;;;;;;;13.23;3.53;;;17.10;99.90;;;;;;5049108;28;20239;-28
2022/11/01 08:48:54;;;;;;;8.57;2.50;;;17.20;99.90;;;;;;5048137;28;20170;-27
2022/11/01 08:51:24;;;;;;;11.27;3.30;;;17.40;99.90;;;;;;5062064;28;20201;-28
2022/11/01 08:53:57;;;;;;;8.35;2.78;;;17.50;99.90;;;;;;5062757;28;20405;-28
2022/11/01 08:56:23;;;;;;;9.70;2.67;;;17.70;99.90;;;;;;5063377;28;20039;-28
2022/11/01 08:58:50;;;;;;;10.23;3.03;;;17.70;99.90;;;;;;5097999;28;20028;-28
2022/11/01 09:01:16;;;;;;;10.95;3.55;;;17.80;99.90;;;;;;5066985;28;20032;-28
2022/11/01 09:03:42;;;;;;;7.65;2.50;;;17.90;99.90;;;;;;5063197;28;20062;-28
2022/11/01 09:06:08;;;;;;;7.35;2.50;;;18.00;99.90;;;;;;5063757;28;20501;-28
2022/11/01 09:08:34;;;;;;;9.00;2.08;;;17.80;99.90;;;;;;5081278;28;20036;-28
2022/11/01 09:11:00;;;;;;;8.50;2.45;;;18.00;99.90;;;;;;5048428;28;20041;-28
2022/11/01 09:13:26;;;;;;;10.43;3.08;;;18.10;99.90;;;;;;5042875;28;20047;-28
2022/11/01 09:15:51;;;;;;;10.27;2.50;;;18.10;99.90;;;;;;5057533;28;20122;-28
2022/11/01 09:18:17;;;;;;;10.63;2.67;;;18.40;99.90;;;;;;5038596;28;20041;-28
2022/11/01 09:20:43;;;;;;;6.60;2.10;;;18.70;99.90;;;;;;5038666;28;20436;-26
2022/11/01 09:23:09;;;;;;;9.25;2.72;;;19.00;99.90;;;;;;5038358;28;20490;-28
2022/11/01 09:25:35;;;;;;;8.88;2.05;;;18.90;99.90;;;;;;5037792;28;20037;-28
2022/11/01 09:28:01;;;;;;;6.25;2.22;;;18.90;99.90;;;;;;5037543;28;20052;-28
2022/11/01 09:30:29;;;;;;;10.18;2.40;;;19.00;99.90;;;;;;5037555;28;20120;-27
2022/11/01 09:32:54;;;;;;;7.78;2.22;;;19.10;99.90;;;;;;5037574;28;20075;-27
2022/11/01 09:35:20;;;;;;;10.23;2.78;;;19.10;99.90;;;;;;5037294;28;20084;-28
2022/11/01 09:37:46;;;;;;;9.95;2.85;;;19.40;99.80;;;;;;5049838;28;20041;-27
2022/11/01 09:40:13;;;;;;;6.63;2.30;;;19.50;98.40;;;;;;5075033;28;20048;-28
2022/11/01 09:42:42;;;;;;;7.70;2.75;;;19.70;98.40;;;;;;5041394;28;20044;-28
2022/11/01 09:45:25;;;;;;;7.72;2.33;;;19.70;94.90;;;;;;5056910;28;20474;-28
2022/11/01 09:47:55;;;;;;;10.50;2.72;;;19.90;96.00;;;;;;5068525;28;20582;-28
2022/11/01 09:50:23;;;;;;;9.23;2.38;;;20.10;94.70;;;;;;5079828;28;20040;-28
2022/11/01 09:52:51;;;;;;;8.48;2.60;;;20.30;95.70;;;;;;5081107;28;20170;-28
2022/11/01 09:55:33;;;;;;;8.10;2.17;;;20.60;83.00;;;;;;5063755;28;20087;-28
2022/11/01 09:58:08;;;;;;;15.45;2.90;;;20.60;83.80;;;;;;5080587;28;20047;-28
2022/11/01 10:00:40;;;;;;;9.00;2.78;;;20.60;80.90;;;;;;5080622;28;20043;-28
2022/11/01 10:03:14;;;;;;;10.40;3.17;;;20.40;82.60;;;;;;5098300;28;20094;-28
2022/11/01 10:05:56;;;;;;;12.02;3.55;;;20.30;86.30;;;;;;5080370;28;20047;-28
2022/11/01 10:08:57;;;;;;;12.30;2.78;;;20.30;90.50;;;;;;5080350;28;20047;-28
2022/11/01 10:12:02;;;;;;;9.60;2.75;;;20.50;74.80;;;;;;5079791;28;20056;-28
2022/11/01 10:14:34;;;;;;;8.10;2.50;;;20.80;90.40;;;;;;5077944;28;20481;-26
2022/11/01 10:17:08;;;;;;;7.18;2.35;;;20.80;92.60;;;;;;5077973;28;20039;-27
2022/11/01 10:19:35;;;;;;;9.70;2.85;;;20.50;80.10;;;;;;5077626;28;20071;-27
2022/11/01 10:22:22;;;;;;;9.10;2.38;;;20.60;90.90;;;;;;5076738;28;20044;-27
2022/11/01 10:25:03;;;;;;;8.82;2.50;;;20.80;73.90;;;;;;5062476;28;20089;-28
2022/11/01 10:27:52;;;;;;;10.60;2.75;;;20.30;80.00;;;;;;5055921;28;20040;-27
2022/11/01 10:30:19;;;;;;;10.77;2.92;;;19.60;86.40;;;;;;5055655;28;20638;-27
2022/11/01 10:33:24;;;;;;;9.50;2.55;;;19.60;96.60;;;;;;5055588;28;20044;-27
2022/11/01 10:35:57;;;;;;;10.38;2.78;;;19.40;95.50;;;;;;5025581;28;20382;-27
2022/11/01 10:38:39;;;;;;;13.27;2.55;;;19.20;99.40;;;;;;5056012;28;20041;-27
2022/11/01 10:41:08;;;;;;;8.20;2.58;;;18.80;98.80;;;;;;5056068;28;20044;-27
2022/11/01 10:43:39;;;;;;;9.38;2.28;;;18.30;99.90;;;;;;5073669;28;20044;-27
2022/11/01 10:46:07;;;;;;;9.93;2.28;;;18.00;99.90;;;;;;5056132;28;20068;-27
2022/11/01 10:48:40;;;;;;;10.90;2.30;;;18.00;99.90;;;;;;5055951;28;20090;-27
2022/11/01 10:51:11;;;;;;;9.13;2.40;;;18.60;99.90;;;;;;5056087;28;20052;-27
2022/11/01 10:53:43;;;;;;;10.73;2.55;;;19.00;99.90;;;;;;5056375;28;20212;-27
2022/11/01 10:56:14;;;;;;;8.48;2.78;;;19.40;97.40;;;;;;5056217;28;20041;-27
2022/11/01 10:59:08;;;;;;;14.98;2.72;;;19.60;96.80;;;;;;5055678;28;20044;-27
2022/11/01 11:01:43;;;;;;;11.15;2.75;;;19.50;95.20;;;;;;5056078;28;20068;-27
2022/11/01 11:04:14;;;;;;;7.57;2.20;;;19.20;99.90;;;;;;5056404;28;20410;-27
2022/11/01 11:06:41;;;;;;;10.32;2.45;;;19.30;99.40;;;;;;5048478;28;20041;-27
2022/11/01 11:09:33;;;;;;;8.70;2.33;;;19.40;98.10;;;;;;5062326;28;20044;-27
2022/11/01 11:12:08;;;;;;;8.27;2.67;;;19.70;93.40;;;;;;5035357;28;20036;-27
2022/11/01 11:14:35;;;;;;;10.50;2.75;;;19.60;98.30;;;;;;5035882;28;20037;-27
2022/11/01 11:17:02;;;;;;;10.52;2.85;;;19.40;99.30;;;;;;5043626;28;20047;-27
2022/11/01 11:19:28;;;;;;;6.63;1.98;;;19.00;99.90;;;;;;5055378;28;20036;-27
2022/11/01 11:21:55;;;;;;;10.48;2.22;;;18.80;99.90;;;;;;5055835;28;20043;-26
2022/11/01 11:24:36;;;;;;;11.73;2.92;;;18.50;99.90;;;;;;5040957;28;20394;-27
2022/11/01 11:27:10;;;;;;;11.85;3.28;;;18.40;99.90;;;;;;5035610;28;20048;-27
2022/11/01 11:29:48;;;;;;;10.27;2.72;;;18.30;99.90;;;;;;5035602;28;20037;-27
2022/11/01 11:32:27;;;;;;;9.93;2.70;;;18.30;99.90;;;;;;5044531;28;20543;-31
2022/11/01 11:35:07;;;;;;;12.52;2.45;;;18.50;99.90;;;;;;5055095;28;20055;-27
2022/11/01 11:37:36;;;;;;;9.90;2.97;;;18.70;99.90;;;;;;5044198;28;20076;-27
2022/11/01 11:40:11;;;;;;;11.60;2.45;;;19.30;99.90;;;;;;5035248;28;20033;-27
2022/11/01 11:42:37;;;;;;;13.20;2.65;;;19.40;98.30;;;;;;5035418;28;20045;-27
2022/11/01 11:45:28;;;;;;;7.93;2.20;;;19.30;99.90;;;;;;5034945;28;20065;-27
2022/11/01 11:48:15;;;;;;;7.07;2.42;;;19.50;96.30;;;;;;5028510;28;20053;-28
2022/11/01 11:50:42;;;;;;;10.93;2.17;;;19.80;96.90;;;;;;5036800;28;20044;-28
2022/11/01 11:53:21;;;;;;;9.00;2.42;;;19.70;98.40;;;;;;5079897;28;20047;-28
2022/11/01 11:56:01;;;;;;;13.23;2.80;;;19.80;96.70;;;;;;5066782;28;20044;-28
2022/11/01 11:58:31;;;;;;;9.13;2.95;;;19.90;99.60;;;;;;5082667;28;20043;-28
2022/11/01 12:01:05;;;;;;;8.95;2.05;;;19.80;99.90;;;;;;5058915;28;20109;-28
2022/11/01 12:03:48;;;;;;;10.07;2.28;;;19.90;94.20;;;;;;5058174;28;20037;-28
2022/11/01 12:06:22;;;;;;;8.88;2.20;;;20.20;95.60;;;;;;5058768;28;20089;-28
2022/11/01 12:08:53;;;;;;;9.20;2.88;;;20.80;91.20;;;;;;5058970;28;20044;-28
2022/11/01 12:11:22;;;;;;;7.75;1.98;;;21.10;91.60;;;;;;5073772;28;20090;-28
2022/11/01 12:14:02;;;;;;;7.30;2.20;;;21.70;80.20;;;;;;5056058;28;20070;-28
2022/11/01 12:16:29;;;;;;;8.73;2.45;;;22.10;73.30;;;;;;5057074;28;20036;-28
2022/11/01 12:18:57;;;;;;;7.47;2.50;;;22.70;71.70;;;;;;5056625;28;20119;-28
2022/11/01 12:21:24;;;;;;;6.47;2.13;;;23.20;65.90;;;;;;5056373;28;20040;-28
2022/11/01 12:23:59;;;;;;;7.88;2.45;;;23.90;62.10;;;;;;5055951;28;20040;-28
2022/11/01 12:26:29;;;;;;;8.23;2.03;;;23.90;56.70;;;;;;5038638;28;20080;-28
2022/11/01 12:29:27;;;;;;;8.35;2.35;;;23.60;58.10;;;;;;5058736;28;20093;-27
2022/11/01 12:31:56;;;;;;;7.60;2.20;;;23.90;58.60;;;;;;5075867;28;20477;-28
2022/11/01 12:34:30;;;;;;;12.02;2.30;;;23.90;57.70;;;;;;5075643;28;20097;-28
2022/11/01 12:37:06;;;;;;;7.50;1.88;;;24.00;53.70;;;;;;5076158;28;20477;-28
2022/11/01 12:39:53;;;;;;;7.10;2.20;;;24.00;56.00;;;;;;5075416;28;20039;-28
2022/11/01 12:42:27;;;;;;;5.75;1.85;;;24.10;56.20;;;;;;5075506;28;20400;-28
2022/11/01 12:45:21;;;;;;;6.93;1.77;;;24.20;54.30;;;;;;5075328;28;20397;-28
2022/11/01 12:47:54;;;;;;;9.52;2.67;;;24.40;53.60;;;;;;5074585;28;20036;-28
2022/11/01 12:50:26;;;;;;;6.57;2.35;;;24.60;53.70;;;;;;5074620;28;20044;-28
2022/11/01 12:52:59;;;;;;;7.25;2.22;;;25.10;53.30;;;;;;5074834;28;20078;-26
2022/11/01 12:55:40;;;;;;;7.70;2.08;;;25.10;51.70;;;;;;5070947;28;20102;-27
2022/11/01 12:58:25;;;;;;;9.48;1.90;;;25.10;50.60;;;;;;5055872;28;20040;-27
2022/11/01 13:01:06;;;;;;;7.93;2.25;;;25.00;49.60;;;;;;5055700;28;20094;-27